Aérodrome :
LOGIN :

S'inscrire | Disclaimer

   EN    FR    IT 

 










Légende :    VFR   VFR Marginal   IFR   IFR Intensif   IFR Très Intensif
Visi : 
Plafond : 
>= 8 km
>= 3000ft
5 à 8 km
1000 à 3000 ft
1500m à 5 km
500 à 1000 ft
800 à 1500m
200 à 500 ft
< 800m
< 200 ft
Symboles :   Orages  Brouillard  Fortes neiges  Fortes précipitations  Vent > 20 kt
SIGMETs :   Divers  Orages  Givrage  Turbulence  Onde Orograph.  Cendres Volcan.






- Altitude de l'aérodrome : 82 ft
- Code IATA : AAR


EKAH - Aarhus Tirstrup

DERNIER METAR :
  • 281820Z AUTO 33010KT 9999NDV NCD 06/M02 Q1022

METARs EXPIRÉS :
  • 281750Z AUTO 34011KT 9999NDV NCD 06/M02 Q1022
  • 281720Z AUTO 35012KT 9999NDV NCD 06/M01 Q1022
  • 281650Z AUTO 35012KT 9999NDV SCT210/// 07/M01 Q1022
  • 281620Z AUTO 35010KT 9999NDV BKN200/// 07/M01 Q1022
  • 281550Z AUTO 36014KT 9999NDV FEW190/// 07/M01 Q1022

TAF TAF EKAH
Valide du 28 à 18h jusqu'au 29 à 18h UTC


281714Z 2818/2918 01012KT 9999 SCT040
TEMPO 2821/2914 03020G32KT
BECMG 2823/2901 4000 -RASN
BECMG 2901/2903 9999 NSW



MET'MAP, la Météo Aéronautique d'un coup d'oeil ! - Copyright ORBIFLY Décembre 2007 - Disclaimer

ORBIFLY MET'MAP TEAM :

Programmation & Développement : Alexandra Zaïnal
Sur une idée originale de : Baudouin d'Aumeries
Assistance à la programmation : Marc-Olivier Méhu
Soutien technique & logistique : Manuel Goepfert

Contact : metmap@orbifly.com




SOURCES & CREDITS :

   NOAA